createdAt,value
2019-03-13T00:02:30.203Z,98567.91
2019-03-13T00:07:51.872Z,98561.73
2019-03-13T00:13:13.279Z,98547.72
2019-03-13T00:18:34.842Z,98560.91
2019-03-13T00:23:55.791Z,98549.11
2019-03-13T00:29:17.174Z,98551.36
2019-03-13T00:34:38.279Z,98538.95
2019-03-13T00:39:59.253Z,98541.49
2019-03-13T00:45:20.212Z,98539.94
2019-03-13T00:50:41.348Z,98525.15
2019-03-13T00:56:02.383Z,98555.09
2019-03-13T01:01:43.130Z,98538.05
2019-03-13T01:07:07.015Z,98539.28
2019-03-13T01:12:27.811Z,98541.05
2019-03-13T01:17:48.862Z,98521.75
2019-03-13T01:23:09.793Z,98537.69
2019-03-13T01:28:31.190Z,98529.37
2019-03-13T01:33:54.052Z,98537.03
2019-03-13T01:39:15.214Z,98533.63
2019-03-13T01:44:36.707Z,98522.94
2019-03-13T01:49:58.282Z,98535.23
2019-03-13T01:55:19.330Z,98512.86
2019-03-13T02:00:40.490Z,98511.72
2019-03-13T02:06:01.861Z,98510.03
2019-03-13T02:11:22.786Z,98521.55
2019-03-13T02:16:44.063Z,98514.95
2019-03-13T02:22:05.380Z,98530.96
2019-03-13T02:27:26.443Z,98514.13
2019-03-13T02:32:47.628Z,98501.95
2019-03-13T02:38:08.558Z,98497.27
2019-03-13T02:43:29.908Z,98521.91
2019-03-13T02:48:50.821Z,98510.70
2019-03-13T02:54:12.286Z,98520.61
2019-03-13T02:59:33.272Z,98498.80
2019-03-13T03:04:55.972Z,98506.96
2019-03-13T03:10:17.389Z,98510.15
2019-03-13T03:15:38.722Z,98527.26
2019-03-13T03:21:00.101Z,98513.08
2019-03-13T03:26:21.150Z,98504.44
2019-03-13T03:31:42.402Z,98510.62
2019-03-13T03:37:03.922Z,98511.83
2019-03-13T03:42:25.416Z,98503.12
2019-03-13T03:47:46.541Z,98496.38
2019-03-13T03:53:07.388Z,98523.39
2019-03-13T03:58:29.791Z,98527.31
2019-03-13T04:03:51.245Z,98524.72
2019-03-13T04:09:12.557Z,98532.78
2019-03-13T04:14:33.912Z,98527.33
2019-03-13T04:19:54.833Z,98526.39
2019-03-13T04:25:30.369Z,98529.75
2019-03-13T04:30:51.338Z,98536.23
2019-03-13T04:36:12.687Z,98550.20
2019-03-13T04:41:33.629Z,98542.52
2019-03-13T04:46:55.075Z,98562.00
2019-03-13T04:52:16.282Z,98562.77
2019-03-13T04:57:37.326Z,98558.36
2019-03-13T05:02:58.437Z,98589.45
2019-03-13T05:09:10.233Z,98571.75
2019-03-13T05:14:32.861Z,98573.98
2019-03-13T05:19:54.451Z,98592.14
2019-03-13T05:25:15.669Z,98595.34
2019-03-13T05:30:36.639Z,98600.10
2019-03-13T05:35:57.955Z,98607.83
2019-03-13T05:41:19.270Z,98620.13
2019-03-13T05:46:40.488Z,98621.23
2019-03-13T05:52:01.689Z,98639.44
2019-03-13T05:57:22.563Z,98626.73
2019-03-13T06:02:43.841Z,98636.47
2019-03-13T06:08:05.091Z,98636.47
2019-03-13T06:13:26.962Z,98643.02
2019-03-13T06:18:48.112Z,98649.33
2019-03-13T06:24:09.339Z,98657.83
2019-03-13T06:29:31.919Z,98667.81
2019-03-13T06:34:53.323Z,98676.78
2019-03-13T06:40:14.652Z,98679.31
2019-03-13T06:45:36.003Z,98682.97
2019-03-13T06:50:57.356Z,98689.95
2019-03-13T06:56:18.399Z,98699.45
2019-03-13T07:02:04.878Z,98690.30
2019-03-13T07:07:39.645Z,98709.45
2019-03-13T07:13:20.106Z,98723.95
2019-03-13T07:18:55.836Z,98697.23
2019-03-13T07:24:42.552Z,98699.41
2019-03-13T07:30:22.322Z,98696.22
2019-03-13T07:36:17.913Z,98695.30
2019-03-13T07:41:57.462Z,98699.91
2019-03-13T07:47:41.009Z,98702.77
2019-03-13T07:53:12.443Z,98701.55
2019-03-13T07:58:55.872Z,98688.80
2019-03-13T08:04:45.490Z,98678.45
2019-03-13T08:10:26.880Z,98674.70
2019-03-13T08:16:10.266Z,98666.30
2019-03-13T08:21:56.805Z,98669.80
2019-03-13T08:27:55.684Z,98673.03
2019-03-13T08:33:27.350Z,98670.67
2019-03-13T08:39:10.946Z,98649.59
2019-03-13T08:44:50.209Z,98650.06
2019-03-13T08:50:30.870Z,98653.65
2019-03-13T08:55:59.245Z,98665.30
2019-03-13T09:01:33.204Z,98660.77
2019-03-13T09:07:23.014Z,98647.45
2019-03-13T09:13:01.779Z,98651.39
2019-03-13T09:18:51.295Z,98661.19
2019-03-13T09:24:21.029Z,98650.03
2019-03-13T09:30:07.523Z,98649.19
2019-03-13T09:35:53.978Z,98652.11
2019-03-13T09:41:23.964Z,98638.00
2019-03-13T09:46:53.329Z,98637.95
2019-03-13T09:52:43.197Z,98631.83
2019-03-13T09:58:22.082Z,98625.91
2019-03-13T10:04:02.784Z,98620.58
2019-03-13T10:09:36.988Z,98622.01
2019-03-13T10:15:03.382Z,98630.36
2019-03-13T10:20:42.652Z,98617.42
2019-03-13T10:26:29.543Z,98621.30
2019-03-13T10:31:59.774Z,98618.15
2019-03-13T10:37:38.821Z,98612.76
2019-03-13T10:43:25.396Z,98604.48
2019-03-13T10:49:04.738Z,98594.22
2019-03-13T10:54:54.342Z,98585.53
2019-03-13T11:00:38.226Z,98582.44
2019-03-13T11:06:27.638Z,98571.28
2019-03-13T11:11:55.093Z,98575.31
2019-03-13T11:17:41.993Z,98567.97
2019-03-13T11:23:12.814Z,98563.29
2019-03-13T11:28:59.383Z,98554.85
2019-03-13T11:34:42.872Z,98544.40
2019-03-13T11:40:30.321Z,98549.83
2019-03-13T11:46:14.160Z,98540.58
2019-03-13T11:52:03.928Z,98525.18
2019-03-13T11:57:50.657Z,98525.14
2019-03-13T12:03:27.498Z,98514.09
2019-03-13T12:09:23.155Z,98517.01
2019-03-13T12:15:06.629Z,98514.13
2019-03-13T12:20:45.923Z,98510.77
2019-03-13T12:26:35.485Z,98501.64
2019-03-13T12:32:15.466Z,98495.03
2019-03-13T12:37:58.978Z,98488.84
2019-03-13T12:43:29.075Z,98501.84
2019-03-13T12:49:08.158Z,98507.41
2019-03-13T12:54:36.741Z,98516.17
2019-03-13T13:00:05.735Z,98513.13
2019-03-13T13:05:42.435Z,98513.34
2019-03-13T13:11:21.164Z,98500.28
2019-03-13T13:16:59.183Z,98507.34
2019-03-13T13:22:20.141Z,98505.67
2019-03-13T13:27:41.901Z,98504.84
2019-03-13T13:33:03.164Z,98506.41
2019-03-13T13:38:24.223Z,98500.31
2019-03-13T13:43:45.520Z,98495.75
2019-03-13T13:49:06.580Z,98496.93
2019-03-13T13:54:27.480Z,98498.02
2019-03-13T13:59:49.213Z,98495.50
2019-03-13T14:05:10.855Z,98487.20
2019-03-13T14:10:31.932Z,98494.29
2019-03-13T14:15:53.267Z,98494.08
2019-03-13T14:21:14.367Z,98492.63
2019-03-13T14:26:44.047Z,98481.33
2019-03-13T14:32:05.531Z,98477.37
2019-03-13T14:37:26.444Z,98475.55
2019-03-13T14:42:48.809Z,98473.88
2019-03-13T14:48:10.223Z,98484.33
2019-03-13T14:53:31.311Z,98491.89
2019-03-13T14:58:52.642Z,98491.50
2019-03-13T15:04:13.833Z,98489.59
2019-03-13T15:09:34.812Z,98490.23
2019-03-13T15:14:55.820Z,98488.64
2019-03-13T15:20:17.059Z,98495.18
2019-03-13T15:25:38.068Z,98502.54
2019-03-13T15:30:59.350Z,98501.77
2019-03-13T15:36:20.800Z,98502.08
2019-03-13T15:41:42.306Z,98502.66
2019-03-13T15:47:03.719Z,98507.37
2019-03-13T15:52:26.363Z,98503.16
2019-03-13T15:57:47.760Z,98506.08
2019-03-13T16:03:08.967Z,98504.98
2019-03-13T16:08:30.267Z,98508.16
2019-03-13T16:13:51.614Z,98506.25
2019-03-13T16:19:14.305Z,98515.27
2019-03-13T16:24:35.636Z,98528.23
2019-03-13T16:29:57.111Z,98530.97
2019-03-13T16:35:18.256Z,98531.21
2019-03-13T16:40:39.764Z,98539.30
2019-03-13T16:46:01.283Z,98552.78
2019-03-13T16:51:22.684Z,98570.19
2019-03-13T16:56:46.478Z,98555.16
2019-03-13T17:02:08.052Z,98566.97
2019-03-13T17:07:40.618Z,98563.90
2019-03-13T17:13:05.156Z,98589.37
2019-03-13T17:18:25.524Z,98584.19
2019-03-13T17:23:46.778Z,98584.42
2019-03-13T17:29:08.174Z,98591.36
2019-03-13T17:34:30.351Z,98602.28
2019-03-13T17:39:51.802Z,98592.31
2019-03-13T17:45:15.412Z,98593.30
2019-03-13T17:50:36.576Z,98599.45
2019-03-13T17:55:57.631Z,98612.88
2019-03-13T18:01:19.743Z,98603.59
2019-03-13T18:06:40.567Z,98601.53
2019-03-13T18:12:02.153Z,98609.59
2019-03-13T18:17:23.122Z,98623.00
2019-03-13T18:22:44.922Z,98614.48
2019-03-13T18:28:05.967Z,98607.80
2019-03-13T18:33:27.400Z,98615.23
2019-03-13T18:38:48.223Z,98608.02
2019-03-13T18:44:09.457Z,98596.15
2019-03-13T18:49:30.449Z,98601.58
2019-03-13T18:54:55.992Z,98591.84
2019-03-13T19:00:22.553Z,98600.86
2019-03-13T19:05:43.585Z,98606.63
2019-03-13T19:11:05.521Z,98599.72
2019-03-13T19:16:26.682Z,98607.66
2019-03-13T19:21:48.004Z,98605.92
2019-03-13T19:27:09.605Z,98609.58
2019-03-13T19:32:30.902Z,98610.68
2019-03-13T19:37:52.708Z,98611.25
2019-03-13T19:43:14.026Z,98610.73
2019-03-13T19:48:35.439Z,98621.95
2019-03-13T19:53:56.861Z,98613.02
2019-03-13T19:59:17.787Z,98633.80
2019-03-13T20:04:47.381Z,98619.89
2019-03-13T20:10:02.252Z,98613.46
2019-03-13T20:15:24.092Z,98610.83
2019-03-13T20:20:45.402Z,98609.62
2019-03-13T20:26:06.567Z,98611.75
2019-03-13T20:31:27.377Z,98622.63
2019-03-13T20:36:49.100Z,98617.69
2019-03-13T20:42:13.221Z,98624.34
2019-03-13T20:47:34.775Z,98619.58
2019-03-13T20:52:56.027Z,98617.27
2019-03-13T20:58:17.245Z,98616.45
2019-03-13T21:03:38.420Z,98599.39
2019-03-13T21:08:59.540Z,98582.20
2019-03-13T21:14:22.244Z,98568.89
2019-03-13T21:19:43.153Z,98571.48
2019-03-13T21:25:05.141Z,98568.97
2019-03-13T21:30:26.750Z,98565.16
2019-03-13T21:35:48.081Z,98564.09
2019-03-13T21:41:09.660Z,98559.93
2019-03-13T21:46:31.208Z,98549.94
2019-03-13T21:51:52.447Z,98538.98
2019-03-13T21:57:13.868Z,98544.47
2019-03-13T22:02:36.532Z,98541.07
2019-03-13T22:07:57.867Z,98540.85
2019-03-13T22:13:18.837Z,98540.38
2019-03-13T22:18:40.162Z,98531.82
2019-03-13T22:24:01.470Z,98352.13
2019-03-13T22:29:22.972Z,98508.13
2019-03-13T22:34:43.900Z,98499.77
2019-03-13T22:40:05.855Z,98481.67
2019-03-13T22:45:26.624Z,98484.56
2019-03-13T22:50:47.855Z,98479.02
2019-03-13T22:56:09.440Z,98481.05
2019-03-13T23:01:30.501Z,98487.88
2019-03-13T23:06:51.755Z,98488.20
2019-03-13T23:12:12.634Z,98498.03
2019-03-13T23:17:33.786Z,98497.09
2019-03-13T23:22:54.838Z,98499.28
2019-03-13T23:28:16.754Z,98483.11
2019-03-13T23:33:38.147Z,98489.20
2019-03-13T23:38:59.378Z,98481.48
2019-03-13T23:44:20.693Z,98478.81
2019-03-13T23:49:41.833Z,98479.77
2019-03-13T23:55:03.302Z,98478.52
